Time;durP1;ratioP1;P1;durP2;ratioP2;P2;SDS_P1;SDS_P2;PMS_P1;PMS_P2;Temp;Humidity;BMP_temperature;BMP_pressure;BME280_temperature;BME280_humidity;BME280_pressure;Samples;Min_cycle;Max_cycle;Signal;HPM_P1;HPM_P2
2024/03/07 00:00:28;;;;;;;;;;;;;;;18.57;62.16;101034.75;7376977;19;1448;-40
2024/03/07 00:02:56;;;;;;;;;;;;;;;18.60;62.15;101058.63;7391038;19;1105;-41
2024/03/07 00:05:25;;;;;;;;;;;;;;;18.47;62.25;101029.31;7391379;19;1211;-42
2024/03/07 00:07:53;;;;;;;;;;;;;;;18.44;62.40;101042.09;7389790;19;1524;-42
2024/03/07 00:10:21;;;;;;;;;;;;;;;18.49;62.36;101042.56;7389538;19;1187;-41
2024/03/07 00:12:50;;;;;;;;;;;;;;;18.34;62.51;101031.25;7364694;19;1857;-41
2024/03/07 00:15:18;;;;;;;;;;;;;;;18.45;62.42;101035.75;7389472;19;1595;-41
2024/03/07 00:17:49;;;;;;;;;;;;;;;18.41;62.31;101032.47;7392611;19;1396;-40
2024/03/07 00:20:19;;;;;;;;;;;;;;;18.40;62.45;101019.22;7393518;19;1230;-40
2024/03/07 00:22:47;;;;;;;;;;;;;;;18.36;62.30;101032.00;7395481;19;1176;-41
2024/03/07 00:25:19;;;;;;;;;;;;;;;18.48;62.21;101031.00;7393747;19;1080;-41
2024/03/07 00:27:47;;;;;;;;;;;;;;;18.46;62.29;101032.09;7393468;19;1160;-41
2024/03/07 00:30:18;;;;;;;;;;;;;;;18.41;62.38;101021.78;7392422;19;1635;-40
2024/03/07 00:32:49;;;;;;;;;;;;;;;18.55;62.22;101022.47;7392265;19;1857;-40
2024/03/07 00:35:18;;;;;;;;;;;;;;;18.39;62.70;101018.38;7393671;19;1105;-41
2024/03/07 00:37:47;;;;;;;;;;;;;;;18.47;62.36;101015.91;7393277;19;1171;-42
2024/03/07 00:40:15;;;;;;;;;;;;;;;18.48;62.27;100998.00;7393478;19;1153;-41
2024/03/07 00:42:44;;;;;;;;;;;;;;;18.40;62.45;100997.78;7392978;19;1299;-40
2024/03/07 00:45:12;;;;;;;;;;;;;;;18.46;62.27;101010.66;7392235;19;1108;-41
2024/03/07 00:47:40;;;;;;;;;;;;;;;18.39;62.48;101004.97;7392348;19;1117;-41
2024/03/07 00:50:12;;;;;;;;;;;;;;;18.46;62.46;101027.63;7392816;19;1630;-41
2024/03/07 00:52:40;;;;;;;;;;;;;;;18.44;62.44;101001.91;7392708;19;1855;-41
2024/03/07 00:55:11;;;;;;;;;;;;;;;18.45;62.33;101003.63;7392808;19;1488;-41
2024/03/07 00:57:39;;;;;;;;;;;;;;;18.43;62.40;101005.59;7392411;19;1634;-41
2024/03/07 01:00:11;;;;;;;;;;;;;;;18.37;62.36;100998.06;7374439;19;2343;-40
2024/03/07 01:02:43;;;;;;;;;;;;;;;18.34;62.53;100995.63;7392493;19;1555;-41
2024/03/07 01:05:17;;;;;;;;;;;;;;;18.25;62.58;100998.06;7391760;19;1255;-40
2024/03/07 01:07:46;;;;;;;;;;;;;;;18.25;62.74;100991.88;7392129;19;1265;-41
2024/03/07 01:10:14;;;;;;;;;;;;;;;18.33;62.54;100972.50;7391914;19;1521;-41
2024/03/07 01:12:43;;;;;;;;;;;;;;;18.38;62.12;100995.25;7390343;19;1857;-40
2024/03/07 01:15:11;;;;;;;;;;;;;;;18.40;62.30;100995.13;7391847;19;1536;-41
2024/03/07 01:17:40;;;;;;;;;;;;;;;18.39;62.08;100993.44;7392622;19;1498;-41
2024/03/07 01:20:09;;;;;;;;;;;;;;;18.41;62.19;101005.69;7392367;19;1465;-41
2024/03/07 01:22:40;;;;;;;;;;;;;;;18.39;62.26;101006.81;7392958;19;1136;-41
2024/03/07 01:25:09;;;;;;;;;;;;;;;18.43;62.11;101010.94;7391488;19;1389;-40
2024/03/07 01:27:37;;;;;;;;;;;;;;;18.37;62.20;101006.94;7391603;19;1492;-41
2024/03/07 01:30:07;;;;;;;;;;;;;;;18.36;62.12;100993.66;7391468;19;1203;-41
2024/03/07 01:32:36;;;;;;;;;;;;;;;18.32;62.25;101001.09;7390368;19;1842;-42
2024/03/07 01:35:06;;;;;;;;;;;;;;;18.38;61.90;101010.44;7391082;19;1496;-41
2024/03/07 01:37:34;;;;;;;;;;;;;;;18.38;61.94;101003.28;7391725;19;1132;-41
2024/03/07 01:40:06;;;;;;;;;;;;;;;18.36;61.96;100988.31;7392142;19;1093;-41
2024/03/07 01:42:34;;;;;;;;;;;;;;;18.32;62.01;101003.75;7391513;19;1496;-40
2024/03/07 01:45:02;;;;;;;;;;;;;;;18.33;61.88;100988.59;7391371;19;1520;-40
2024/03/07 01:47:31;;;;;;;;;;;;;;;18.29;62.12;100998.69;7391459;19;1519;-41
2024/03/07 01:49:59;;;;;;;;;;;;;;;18.35;62.23;101016.06;7391907;19;1422;-40
2024/03/07 01:52:27;;;;;;;;;;;;;;;18.35;62.16;101008.03;7391949;19;1821;-41
2024/03/07 01:54:56;;;;;;;;;;;;;;;18.28;62.24;101013.91;7391085;19;1153;-41
2024/03/07 01:57:28;;;;;;;;;;;;;;;18.31;62.19;101014.63;7391277;19;1595;-41
2024/03/07 01:59:57;;;;;;;;;;;;;;;18.28;62.20;101005.88;7378755;19;1159;-41
2024/03/07 02:02:25;;;;;;;;;;;;;;;18.14;62.56;100995.41;7389072;19;1223;-41
2024/03/07 02:04:53;;;;;;;;;;;;;;;18.18;62.59;101012.91;7391049;19;1547;-42
2024/03/07 02:07:22;;;;;;;;;;;;;;;18.67;61.40;100995.50;7390962;19;1240;-41
2024/03/07 02:09:50;;;;;;;;;;;;;;;19.37;59.69;101001.25;7391087;19;1177;-41
2024/03/07 02:12:19;;;;;;;;;;;;;;;19.92;58.39;101014.41;7390113;19;1834;-41
2024/03/07 02:14:50;;;;;;;;;;;;;;;20.17;57.75;101001.50;7389439;19;2353;-41
2024/03/07 02:17:20;;;;;;;;;;;;;;;20.10;57.91;101006.56;7390865;19;1405;-41
2024/03/07 02:19:48;;;;;;;;;;;;;;;20.12;58.05;101012.66;7388139;19;1147;-39
2024/03/07 02:22:19;;;;;;;;;;;;;;;20.18;57.98;101004.03;7390988;19;1090;-41
2024/03/07 02:24:48;;;;;;;;;;;;;;;20.18;57.86;101003.19;7388836;19;1500;-41
2024/03/07 02:27:17;;;;;;;;;;;;;;;20.19;57.71;100997.69;7389980;19;1414;-41
2024/03/07 02:29:46;;;;;;;;;;;;;;;20.26;57.76;101004.19;7389354;19;1547;-41
2024/03/07 02:32:15;;;;;;;;;;;;;;;20.25;57.78;100996.28;7389412;19;1421;-40
2024/03/07 02:34:43;;;;;;;;;;;;;;;20.35;57.57;100990.94;7390162;19;1183;-40
2024/03/07 02:37:12;;;;;;;;;;;;;;;20.34;57.54;101000.81;7388889;19;1488;-41
2024/03/07 02:39:43;;;;;;;;;;;;;;;20.42;57.39;101009.03;7388539;19;1136;-41
2024/03/07 02:42:11;;;;;;;;;;;;;;;20.44;57.28;101009.75;7389307;19;1489;-41
2024/03/07 02:44:40;;;;;;;;;;;;;;;20.52;57.12;101017.13;7389718;19;1555;-40
2024/03/07 02:47:09;;;;;;;;;;;;;;;20.53;56.95;100989.28;7389472;19;1430;-40
2024/03/07 02:49:37;;;;;;;;;;;;;;;20.53;57.24;101005.41;7390551;19;1168;-41
2024/03/07 02:52:07;;;;;;;;;;;;;;;20.57;57.09;101003.25;7388708;19;1844;-41
2024/03/07 02:54:36;;;;;;;;;;;;;;;20.62;57.07;101004.56;7386868;19;1863;-41
2024/03/07 02:57:07;;;;;;;;;;;;;;;20.64;56.99;101013.34;7388462;19;1535;-41
2024/03/07 02:59:35;;;;;;;;;;;;;;;20.29;57.61;101007.59;7388547;19;1444;-41
2024/03/07 03:02:05;;;;;;;;;;;;;;;20.08;58.53;101016.59;7374071;19;1271;-41
2024/03/07 03:04:33;;;;;;;;;;;;;;;19.94;58.79;101022.34;7388494;19;1447;-40
2024/03/07 03:07:02;;;;;;;;;;;;;;;19.96;58.72;101028.44;7389039;19;1188;-40
2024/03/07 03:09:33;;;;;;;;;;;;;;;19.91;58.72;101014.56;7389090;19;1131;-41
2024/03/07 03:12:01;;;;;;;;;;;;;;;19.94;58.92;101015.13;7388844;19;1473;-41
2024/03/07 03:14:32;;;;;;;;;;;;;;;19.95;58.96;101007.94;7386625;19;1892;-41
2024/03/07 03:17:01;;;;;;;;;;;;;;;19.96;58.83;101020.38;7388352;19;1513;-41
2024/03/07 03:19:29;;;;;;;;;;;;;;;19.99;58.79;101028.97;7388906;19;1144;-41
2024/03/07 03:21:58;;;;;;;;;;;;;;;19.99;58.74;101004.81;7388155;19;1924;-40
2024/03/07 03:24:27;;;;;;;;;;;;;;;19.97;58.79;101009.47;7387593;19;1541;-41
2024/03/07 03:26:55;;;;;;;;;;;;;;;19.96;58.93;101002.44;7387266;19;1243;-41
2024/03/07 03:29:23;;;;;;;;;;;;;;;20.03;58.81;100987.50;7388723;19;1500;-41
2024/03/07 03:31:55;;;;;;;;;;;;;;;20.00;58.64;101003.00;7399268;19;1171;-42
2024/03/07 03:34:24;;;;;;;;;;;;;;;19.91;59.11;101012.72;7401376;19;1850;-41
2024/03/07 03:36:52;;;;;;;;;;;;;;;19.85;59.11;100994.47;7401972;19;1287;-41
2024/03/07 03:39:20;;;;;;;;;;;;;;;19.74;59.19;101008.84;7402124;19;1527;-43
2024/03/07 03:41:49;;;;;;;;;;;;;;;19.65;59.39;100996.19;7401801;19;1509;-41
2024/03/07 03:44:17;;;;;;;;;;;;;;;19.66;59.51;101017.53;7401731;19;1171;-40
2024/03/07 03:46:46;;;;;;;;;;;;;;;19.90;58.89;100997.59;7402331;19;1180;-41
2024/03/07 03:49:17;;;;;;;;;;;;;;;20.25;58.08;101007.88;7401110;19;1382;-41
2024/03/07 03:51:45;;;;;;;;;;;;;;;20.35;57.85;101015.09;7401440;19;1159;-41
2024/03/07 03:54:15;;;;;;;;;;;;;;;20.32;57.54;101013.53;7400027;19;1860;-41
2024/03/07 03:56:43;;;;;;;;;;;;;;;20.38;57.38;101012.16;7400835;19;1567;-40
2024/03/07 03:59:11;;;;;;;;;;;;;;;20.35;57.64;101012.41;7401509;19;1082;-41
2024/03/07 04:01:41;;;;;;;;;;;;;;;19.84;58.79;101012.41;7387223;19;1119;-42
2024/03/07 04:04:09;;;;;;;;;;;;;;;19.57;59.32;101002.22;7400823;19;1187;-42
2024/03/07 04:06:40;;;;;;;;;;;;;;;19.47;59.48;101025.47;7401044;19;1143;-42
2024/03/07 04:09:09;;;;;;;;;;;;;;;19.30;59.84;101024.25;7400887;19;1184;-41
2024/03/07 04:11:37;;;;;;;;;;;;;;;19.22;59.86;101019.53;7401919;19;1120;-41
2024/03/07 04:14:06;;;;;;;;;;;;;;;19.14;59.86;101029.19;7401008;19;1845;-41
2024/03/07 04:16:34;;;;;;;;;;;;;;;19.05;60.15;101025.47;7402012;19;1761;-41
2024/03/07 04:19:03;;;;;;;;;;;;;;;18.91;60.49;101015.06;7401490;19;1516;-40
2024/03/07 04:21:31;;;;;;;;;;;;;;;18.96;60.67;101023.56;7401321;19;1519;-42
2024/03/07 04:24:02;;;;;;;;;;;;;;;19.03;60.63;101016.72;7401754;19;1187;-40
2024/03/07 04:26:31;;;;;;;;;;;;;;;19.13;60.49;101024.81;7401161;19;1191;-40
2024/03/07 04:28:59;;;;;;;;;;;;;;;19.23;60.22;101055.22;7401061;19;1191;-42
2024/03/07 04:31:28;;;;;;;;;;;;;;;19.31;60.04;101047.38;7401646;19;1191;-40
2024/03/07 04:33:56;;;;;;;;;;;;;;;19.46;59.82;101038.03;7399216;19;1875;-41
2024/03/07 04:36:24;;;;;;;;;;;;;;;19.51;59.44;101050.19;7400257;19;1491;-41
2024/03/07 04:38:53;;;;;;;;;;;;;;;19.56;59.44;101031.88;7400219;19;1192;-41
2024/03/07 04:41:23;;;;;;;;;;;;;;;19.57;59.14;101033.56;7399587;19;1144;-40
2024/03/07 04:43:52;;;;;;;;;;;;;;;19.58;59.37;101043.31;7391032;19;1176;-42
2024/03/07 04:46:20;;;;;;;;;;;;;;;19.60;59.39;101033.31;7394140;19;1101;-41
2024/03/07 04:48:48;;;;;;;;;;;;;;;19.53;59.50;101016.03;7393157;19;1500;-42
2024/03/07 04:51:17;;;;;;;;;;;;;;;19.52;59.29;101020.56;7393500;19;1436;-41
2024/03/07 04:53:45;;;;;;;;;;;;;;;19.53;59.41;101018.72;7391749;19;1862;-41
2024/03/07 04:56:14;;;;;;;;;;;;;;;19.52;59.25;101020.56;7392408;19;1143;-41
2024/03/07 04:58:45;;;;;;;;;;;;;;;19.52;59.35;101030.41;7393042;19;1160;-41
2024/03/07 05:01:15;;;;;;;;;;;;;;;19.51;59.29;101040.31;7377511;19;1531;-41
2024/03/07 05:03:43;;;;;;;;;;;;;;;19.52;59.44;101046.50;7392753;19;1382;-41
2024/03/07 05:06:11;;;;;;;;;;;;;;;19.57;59.36;101036.25;7393624;19;1307;-41
2024/03/07 05:08:40;;;;;;;;;;;;;;;19.53;59.34;101048.22;7391486;19;1147;-42
2024/03/07 05:11:08;;;;;;;;;;;;;;;19.56;59.34;101032.72;7391878;19;1347;-41
2024/03/07 05:13:37;;;;;;;;;;;;;;;19.58;59.29;101037.97;7391167;19;1851;-41
2024/03/07 05:16:08;;;;;;;;;;;;;;;19.64;59.25;101029.38;7390531;19;1360;-42
2024/03/07 05:18:36;;;;;;;;;;;;;;;19.76;59.07;101025.66;7390028;19;2518;-41
2024/03/07 05:21:34;;;;;;;;;;;;;;;19.82;58.59;101026.97;7389601;19;1253;-41
2024/03/07 05:23:53;;;;;;;;;;;;;;;19.91;58.56;101014.56;7389807;19;1551;-41
2024/03/07 05:26:21;;;;;;;;;;;;;;;19.76;57.75;101017.59;7387915;19;1596;-42
2024/03/07 05:28:50;;;;;;;;;;;;;;;19.73;57.77;101023.22;7389757;19;1222;-42
2024/03/07 05:31:22;;;;;;;;;;;;;;;19.70;58.07;101023.47;7392333;19;1261;-42
2024/03/07 05:33:50;;;;;;;;;;;;;;;19.46;58.12;100983.53;7388258;19;1864;-42
2024/03/07 05:36:19;;;;;;;;;;;;;;;19.75;57.68;101025.78;7389798;19;1398;-41
2024/03/07 05:38:48;;;;;;;;;;;;;;;19.55;57.42;101025.66;7389837;19;1392;-42
2024/03/07 05:41:17;;;;;;;;;;;;;;;19.38;57.11;101045.03;7387416;19;1501;-41
2024/03/07 05:43:46;;;;;;;;;;;;;;;19.41;57.39;101034.88;7387913;19;1146;-41
2024/03/07 05:46:14;;;;;;;;;;;;;;;19.40;57.33;101045.75;7386208;19;1160;-41
2024/03/07 05:48:46;;;;;;;;;;;;;;;19.46;57.44;101042.56;7386844;19;1521;-41
2024/03/07 05:51:14;;;;;;;;;;;;;;;19.43;57.54;101054.38;7387159;19;1273;-41
2024/03/07 05:53:43;;;;;;;;;;;;;;;19.42;57.42;101046.47;7386509;19;2460;-41
2024/03/07 05:56:11;;;;;;;;;;;;;;;19.43;57.64;101054.38;7385495;19;1401;-40
2024/03/07 05:58:39;;;;;;;;;;;;;;;19.45;57.56;101033.63;7389881;19;1473;-42
2024/03/07 06:01:08;;;;;;;;;;;;;;;19.40;57.69;101049.28;7376176;19;1508;-40
2024/03/07 06:03:36;;;;;;;;;;;;;;;19.42;57.74;101050.00;7390236;19;1130;-41
2024/03/07 06:06:11;;;;;;;;;;;;;;;19.44;57.80;101037.31;7387578;19;1343;-41
2024/03/07 06:08:41;;;;;;;;;;;;;;;19.41;57.82;101034.88;7387344;19;1059;-42
2024/03/07 06:11:10;;;;;;;;;;;;;;;19.40;57.75;101045.75;7386934;19;1753;-41
2024/03/07 06:13:38;;;;;;;;;;;;;;;19.41;57.79;101055.50;7386669;19;1883;-41
2024/03/07 06:16:07;;;;;;;;;;;;;;;19.39;57.95;101041.38;7386538;19;1199;-40
2024/03/07 06:18:36;;;;;;;;;;;;;;;19.39;57.82;101055.63;7386987;19;1112;-41
2024/03/07 06:21:08;;;;;;;;;;;;;;;19.44;57.73;101039.16;7385388;19;1266;-41
2024/03/07 06:23:39;;;;;;;;;;;;;;;19.43;57.66;101059.72;7388063;19;1275;-41
2024/03/07 06:26:12;;;;;;;;;;;;;;;19.44;57.84;101064.13;7385676;19;2016;-42
2024/03/07 06:28:41;;;;;;;;;;;;;;;19.42;57.72;101046.47;7361903;19;1359;-41
2024/03/07 06:31:10;;;;;;;;;;;;;;;19.42;57.79;101073.31;7384192;19;1177;-41
2024/03/07 06:33:38;;;;;;;;;;;;;;;19.41;57.71;101064.38;7386826;19;1868;-41
2024/03/07 06:36:09;;;;;;;;;;;;;;;19.43;57.76;101065.09;7388467;19;1655;-41
2024/03/07 06:38:39;;;;;;;;;;;;;;;19.42;57.73;101060.72;7372339;19;1628;-41
2024/03/07 06:41:10;;;;;;;;;;;;;;;19.43;57.66;101064.25;7373876;19;1174;-42
2024/03/07 06:43:38;;;;;;;;;;;;;;;19.42;57.77;101049.16;7380966;19;1366;-41
2024/03/07 06:46:09;;;;;;;;;;;;;;;19.48;57.62;101062.88;7388220;19;1059;-41
2024/03/07 06:48:37;;;;;;;;;;;;;;;19.42;57.75;101066.09;7374663;19;1454;-41
2024/03/07 06:51:05;;;;;;;;;;;;;;;19.50;57.57;101075.28;7374204;19;1539;-41
2024/03/07 06:53:37;;;;;;;;;;;;;;;19.45;57.70;101076.53;7386604;19;1282;-41
2024/03/07 06:56:06;;;;;;;;;;;;;;;19.28;57.72;101059.22;7379559;19;1857;-41
2024/03/07 06:58:34;;;;;;;;;;;;;;;19.23;58.07;101074.84;7388731;19;1087;-41
2024/03/07 07:01:06;;;;;;;;;;;;;;;19.08;58.30;101071.63;7387648;19;1508;-41
2024/03/07 07:03:35;;;;;;;;;;;;;;;19.07;58.17;101075.28;7374802;19;1449;-42
2024/03/07 07:06:05;;;;;;;;;;;;;;;19.00;58.28;101075.91;7387127;19;1200;-41
2024/03/07 07:08:36;;;;;;;;;;;;;;;18.94;58.54;101082.66;7386262;19;2233;-41
2024/03/07 07:11:05;;;;;;;;;;;;;;;18.91;58.52;101080.22;7388470;19;1424;-41
2024/03/07 07:13:34;;;;;;;;;;;;;;;19.11;58.39;101086.59;7387921;19;1481;-41
2024/03/07 07:16:02;;;;;;;;;;;;;;;19.20;58.03;101085.84;7387316;19;1859;-41
2024/03/07 07:18:30;;;;;;;;;;;;;;;19.18;57.83;101086.94;7386875;19;1327;-41
2024/03/07 07:20:59;;;;;;;;;;;;;;;19.12;57.77;101084.75;7388183;19;1456;-41
2024/03/07 07:23:27;;;;;;;;;;;;;;;19.07;58.12;101079.78;7388502;19;1183;-41
2024/03/07 07:25:58;;;;;;;;;;;;;;;19.04;58.06;101090.78;7386434;19;1621;-41
2024/03/07 07:28:26;;;;;;;;;;;;;;;18.89;58.43;101082.19;7384271;19;1393;-44
2024/03/07 07:30:55;;;;;;;;;;;;;;;19.03;58.15;101092.59;7384666;19;1140;-46
2024/03/07 07:33:23;;;;;;;;;;;;;;;19.32;57.25;101081.28;7386627;19;1262;-45
2024/03/07 07:35:51;;;;;;;;;;;;;;;19.45;56.67;101078.38;7384353;19;1886;-44
2024/03/07 07:38:20;;;;;;;;;;;;;;;19.40;56.87;101069.91;7386372;19;1413;-44
2024/03/07 07:40:49;;;;;;;;;;;;;;;19.13;56.40;101078.44;7385589;19;1490;-45
2024/03/07 07:43:20;;;;;;;;;;;;;;;18.97;57.82;101069.00;7384836;19;1196;-44
2024/03/07 07:45:49;;;;;;;;;;;;;;;19.15;57.36;101081.84;7385577;19;1422;-44
2024/03/07 07:48:19;;;;;;;;;;;;;;;19.38;56.82;101071.88;7387355;19;1436;-43
2024/03/07 07:50:47;;;;;;;;;;;;;;;19.67;56.37;101061.28;7386156;19;1089;-43
2024/03/07 07:53:16;;;;;;;;;;;;;;;19.95;55.83;101075.03;7386399;19;1452;-49
2024/03/07 07:55:46;;;;;;;;;;;;;;;20.01;55.98;101067.28;7384965;19;1854;-43
2024/03/07 07:58:17;;;;;;;;;;;;;;;20.00;56.48;101072.81;7386164;19;1309;-43
2024/03/07 08:00:48;;;;;;;;;;;;;;;20.07;56.68;101073.94;7386187;19;1246;-43
2024/03/07 08:03:17;;;;;;;;;;;;;;;20.08;56.77;101077.50;7370972;19;1124;-43
2024/03/07 08:05:46;;;;;;;;;;;;;;;20.04;56.94;101069.72;7376837;19;1456;-44
2024/03/07 08:08:16;;;;;;;;;;;;;;;20.05;56.89;101078.59;7370766;19;1137;-43
2024/03/07 08:10:45;;;;;;;;;;;;;;;20.11;56.85;101059.25;7374406;19;1171;-43
2024/03/07 08:13:14;;;;;;;;;;;;;;;20.11;56.72;101072.69;7383872;19;1919;-43
2024/03/07 08:15:42;;;;;;;;;;;;;;;20.09;56.36;101076.50;7383768;19;1878;-44
2024/03/07 08:18:13;;;;;;;;;;;;;;;20.11;56.43;101078.06;7386870;19;1098;-43
2024/03/07 08:20:42;;;;;;;;;;;;;;;20.13;56.33;101089.50;7393255;19;1194;-43
2024/03/07 08:23:12;;;;;;;;;;;;;;;20.19;56.13;101080.06;7392160;19;2041;-44
2024/03/07 08:25:41;;;;;;;;;;;;;;;20.19;56.15;101074.69;7390311;19;1414;-44
2024/03/07 08:28:10;;;;;;;;;;;;;;;19.97;56.54;101063.16;7390488;19;1360;-45
2024/03/07 08:30:39;;;;;;;;;;;;;;;19.62;56.13;101076.97;7391326;19;1267;-40
2024/03/07 08:33:07;;;;;;;;;;;;;;;19.33;56.35;101072.22;7391914;19;1116;-40
2024/03/07 08:35:38;;;;;;;;;;;;;;;19.60;55.44;101086.97;7389978;19;1834;-44
2024/03/07 08:38:08;;;;;;;;;;;;;;;19.75;55.03;101069.56;7393038;19;1515;-42
2024/03/07 08:40:37;;;;;;;;;;;;;;;19.75;54.71;101099.06;7390413;19;1385;-41
2024/03/07 08:43:06;;;;;;;;;;;;;;;19.90;54.54;101093.38;7391220;19;1465;-41
2024/03/07 08:45:36;;;;;;;;;;;;;;;19.99;54.28;101088.03;7391017;19;1183;-41
2024/03/07 08:48:05;;;;;;;;;;;;;;;20.03;54.32;101088.63;7390065;19;1285;-49
2024/03/07 08:50:33;;;;;;;;;;;;;;;19.93;54.58;101058.22;7388293;19;1634;-41
2024/03/07 08:53:05;;;;;;;;;;;;;;;19.95;54.77;101075.88;7389908;19;1139;-41
2024/03/07 08:55:36;;;;;;;;;;;;;;;19.95;54.85;101086.59;7388153;19;1813;-41
2024/03/07 08:58:06;;;;;;;;;;;;;;;19.90;54.96;101091.53;7389552;19;1021;-41
2024/03/07 09:00:34;;;;;;;;;;;;;;;19.91;54.95;101095.06;7389667;19;1553;-41
2024/03/07 09:03:03;;;;;;;;;;;;;;;19.95;54.94;101091.13;7375328;19;1636;-41
2024/03/07 09:05:33;;;;;;;;;;;;;;;19.98;54.93;101094.41;7392656;19;1622;-41
2024/03/07 09:08:01;;;;;;;;;;;;;;;20.02;54.88;101077.03;7392203;19;1225;-41
2024/03/07 09:10:33;;;;;;;;;;;;;;;20.06;54.85;101083.00;7392801;19;1586;-41
2024/03/07 09:13:02;;;;;;;;;;;;;;;20.05;54.77;101090.22;7393112;19;1188;-43
2024/03/07 09:15:31;;;;;;;;;;;;;;;19.98;55.11;101077.47;7391176;19;1831;-46
2024/03/07 09:18:03;;;;;;;;;;;;;;;19.98;54.97;101098.94;7392127;19;1540;-41
2024/03/07 09:20:31;;;;;;;;;;;;;;;19.97;54.95;101102.59;7392542;19;1220;-41
2024/03/07 09:23:00;;;;;;;;;;;;;;;20.04;54.91;101090.34;7392739;19;1187;-41
2024/03/07 09:25:32;;;;;;;;;;;;;;;19.89;55.24;101075.56;7392589;19;1187;-42
2024/03/07 09:28:03;;;;;;;;;;;;;;;19.93;55.11;101088.56;7391668;19;1211;-40
2024/03/07 09:30:31;;;;;;;;;;;;;;;19.98;54.96;101075.63;7391974;19;1323;-41
2024/03/07 09:33:01;;;;;;;;;;;;;;;19.94;55.01;101079.56;7391789;19;1539;-41
2024/03/07 09:35:29;;;;;;;;;;;;;;;19.93;55.21;101077.00;7391165;19;1860;-41
2024/03/07 09:37:58;;;;;;;;;;;;;;;20.00;55.03;101086.22;7392072;19;1614;-40
2024/03/07 09:40:27;;;;;;;;;;;;;;;19.98;55.18;101075.63;7392152;19;1776;-41
2024/03/07 09:42:56;;;;;;;;;;;;;;;19.95;55.04;101091.13;7392533;19;1030;-41
2024/03/07 09:45:31;;;;;;;;;;;;;;;20.02;54.95;101077.03;7392731;19;1057;-48
2024/03/07 09:48:00;;;;;;;;;;;;;;;19.99;55.16;101089.88;7391664;19;1546;-41
2024/03/07 09:50:31;;;;;;;;;;;;;;;20.00;55.05;101089.75;7392526;19;1540;-41
2024/03/07 09:53:00;;;;;;;;;;;;;;;20.08;54.88;101097.13;7388809;19;1801;-41
2024/03/07 09:55:29;;;;;;;;;;;;;;;20.09;54.98;101073.81;7391101;19;1853;-41
2024/03/07 09:57:59;;;;;;;;;;;;;;;20.19;54.90;101072.00;7391848;19;1060;-41
2024/03/07 10:00:32;;;;;;;;;;;;;;;20.12;54.93;101077.09;7390675;19;1250;-40
2024/03/07 10:03:01;;;;;;;;;;;;;;;20.05;55.11;101076.78;7377209;19;1499;-41
2024/03/07 10:05:30;;;;;;;;;;;;;;;20.04;55.14;101066.19;7390515;19;1171;-40
2024/03/07 10:07:58;;;;;;;;;;;;;;;20.04;55.14;101079.59;7390531;19;1559;-41
2024/03/07 10:10:26;;;;;;;;;;;;;;;20.06;55.04;101077.63;7391577;19;1105;-41
2024/03/07 10:12:58;;;;;;;;;;;;;;;20.06;54.97;101081.16;7390111;19;1159;-41
2024/03/07 10:15:33;;;;;;;;;;;;;;;20.01;55.13;101080.69;7389691;19;1842;-41
2024/03/07 10:18:01;;;;;;;;;;;;;;;20.03;55.17;101083.25;7390426;19;1546;-40
2024/03/07 10:20:30;;;;;;;;;;;;;;;20.05;54.92;101074.09;7389671;19;1216;-41
2024/03/07 10:23:00;;;;;;;;;;;;;;;19.96;55.32;101061.47;7390159;19;1035;-41
2024/03/07 10:25:29;;;;;;;;;;;;;;;19.96;55.30;101074.06;7389388;19;1500;-41
2024/03/07 10:27:57;;;;;;;;;;;;;;;20.08;54.95;101078.34;7390799;19;1590;-41
2024/03/07 10:30:25;;;;;;;;;;;;;;;19.97;55.10;101075.75;7389703;19;1571;-41
2024/03/07 10:32:57;;;;;;;;;;;;;;;19.95;55.29;101064.28;7389380;19;1620;-41
2024/03/07 10:35:26;;;;;;;;;;;;;;;19.99;55.27;101071.94;7389354;19;1856;-41
2024/03/07 10:37:57;;;;;;;;;;;;;;;20.09;55.12;101071.97;7390049;19;1207;-41
2024/03/07 10:40:27;;;;;;;;;;;;;;;20.05;55.12;101059.81;7386460;19;2666;-42
2024/03/07 10:43:02;;;;;;;;;;;;;;;20.10;54.98;101062.09;7390406;19;1101;-41
2024/03/07 10:45:31;;;;;;;;;;;;;;;20.14;54.98;101068.91;7390638;19;1042;-41
2024/03/07 10:48:03;;;;;;;;;;;;;;;20.08;54.91;101067.59;7386665;19;2423;-41
2024/03/07 10:50:42;;;;;;;;;;;;;;;20.06;55.11;101073.09;7389144;19;1286;-41
2024/03/07 10:53:15;;;;;;;;;;;;;;;20.01;55.03;101086.06;7389259;19;1069;-40
2024/03/07 10:55:49;;;;;;;;;;;;;;;19.99;55.16;101061.19;7388591;19;1859;-41
2024/03/07 10:58:30;;;;;;;;;;;;;;;20.01;55.26;101072.66;7389946;19;1480;-41
2024/03/07 11:01:01;;;;;;;;;;;;;;;20.02;55.04;101060.94;7387877;19;2000;-41
2024/03/07 11:03:34;;;;;;;;;;;;;;;19.94;55.36;101101.03;7375835;19;1075;-41
2024/03/07 11:06:06;;;;;;;;;;;;;;;19.94;55.42;101057.25;7389898;19;1014;-41
2024/03/07 11:08:35;;;;;;;;;;;;;;;19.92;55.44;101064.56;7389468;19;1853;-41
2024/03/07 11:11:03;;;;;;;;;;;;;;;19.96;55.38;101068.69;7388520;19;1139;-41
2024/03/07 11:13:32;;;;;;;;;;;;;;;19.93;55.38;101069.78;7389347;19;1635;-41
2024/03/07 11:16:01;;;;;;;;;;;;;;;20.06;55.06;101065.06;7388515;19;1870;-41
2024/03/07 11:18:32;;;;;;;;;;;;;;;20.09;55.09;101055.03;7388068;19;1949;-41
2024/03/07 11:21:00;;;;;;;;;;;;;;;20.04;55.07;101076.91;7388520;19;1491;-41
2024/03/07 11:23:29;;;;;;;;;;;;;;;20.03;55.16;101067.16;7389375;19;1417;-41
2024/03/07 11:25:58;;;;;;;;;;;;;;;19.96;55.21;101071.38;7389233;19;974;-41
2024/03/07 11:28:31;;;;;;;;;;;;;;;19.99;55.25;101079.97;7389491;19;1125;-40
2024/03/07 11:31:14;;;;;;;;;;;;;;;19.98;55.00;101066.72;7388640;19;1633;-41
2024/03/07 11:33:45;;;;;;;;;;;;;;;19.88;55.27;101064.00;7388316;19;2613;-40
2024/03/07 11:36:14;;;;;;;;;;;;;;;19.99;55.12;101060.34;7388470;19;1861;-41
2024/03/07 11:38:48;;;;;;;;;;;;;;;19.91;55.32;101062.88;7388530;19;1603;-41
2024/03/07 11:41:16;;;;;;;;;;;;;;;19.90;55.36;101077.28;7387878;19;1199;-39
2024/03/07 11:43:45;;;;;;;;;;;;;;;19.94;55.27;101049.19;7388442;19;1485;-46
2024/03/07 11:46:16;;;;;;;;;;;;;;;19.98;55.14;101067.56;7388532;19;1156;-41
2024/03/07 11:48:47;;;;;;;;;;;;;;;19.98;55.20;101050.63;7388106;19;1384;-41
2024/03/07 11:51:16;;;;;;;;;;;;;;;20.04;55.08;101069.72;7389222;19;1102;-41
2024/03/07 11:53:47;;;;;;;;;;;;;;;20.08;55.03;101043.44;7394904;19;1243;-40
2024/03/07 11:56:16;;;;;;;;;;;;;;;20.07;55.07;101063.22;7394772;19;1844;-40
2024/03/07 11:58:52;;;;;;;;;;;;;;;19.99;55.22;101054.97;7395801;19;1550;-41
2024/03/07 12:01:24;;;;;;;;;;;;;;;19.91;55.23;101057.50;7395918;19;1299;-41
2024/03/07 12:03:55;;;;;;;;;;;;;;;20.04;54.88;101069.72;7381047;19;1611;-41
2024/03/07 12:06:24;;;;;;;;;;;;;;;19.96;55.23;101060.63;7395144;19;1155;-41
2024/03/07 12:08:52;;;;;;;;;;;;;;;19.91;55.24;101057.50;7395754;19;1149;-41
2024/03/07 12:11:21;;;;;;;;;;;;;;;19.97;55.17;101062.31;7395229;19;1492;-41
2024/03/07 12:13:49;;;;;;;;;;;;;;;19.97;55.23;101065.84;7395117;19;1607;-41
2024/03/07 12:16:17;;;;;;;;;;;;;;;20.03;54.93;101069.84;7392511;19;1869;-41
2024/03/07 12:18:48;;;;;;;;;;;;;;;20.09;54.98;101055.88;7394729;19;1542;-41
2024/03/07 12:21:19;;;;;;;;;;;;;;;20.12;54.89;101071.72;7394454;19;1488;-41
2024/03/07 12:23:47;;;;;;;;;;;;;;;20.04;54.91;101068.88;7394888;19;1120;-42
2024/03/07 12:26:25;;;;;;;;;;;;;;;20.04;54.95;101060.81;7394927;19;1184;-41
2024/03/07 12:28:54;;;;;;;;;;;;;;;20.03;55.13;101067.16;7393020;19;2500;-48
2024/03/07 12:31:24;;;;;;;;;;;;;;;20.00;54.98;101062.06;7393546;19;1273;-46
2024/03/07 12:33:54;;;;;;;;;;;;;;;20.04;54.91;101066.19;7394626;19;1496;-41
2024/03/07 12:36:34;;;;;;;;;;;;;;;19.95;55.21;101064.28;7393170;19;1859;-41
2024/03/07 12:39:09;;;;;;;;;;;;;;;20.00;54.96;101054.00;7394036;19;1180;-41
2024/03/07 12:41:37;;;;;;;;;;;;;;;19.98;54.88;101069.41;7393714;19;1424;-41
2024/03/07 12:44:11;;;;;;;;;;;;;;;19.95;55.07;101069.66;7394323;19;1520;-41
2024/03/07 12:46:40;;;;;;;;;;;;;;;19.95;55.28;101065.13;7394329;19;1974;-41
2024/03/07 12:49:08;;;;;;;;;;;;;;;19.97;55.16;101068.53;7394038;19;1485;-41
2024/03/07 12:51:41;;;;;;;;;;;;;;;20.00;55.22;101062.06;7393757;19;1613;-41
2024/03/07 12:54:10;;;;;;;;;;;;;;;20.08;54.87;101072.97;7393565;19;1547;-41
2024/03/07 12:56:39;;;;;;;;;;;;;;;20.08;55.05;101064.91;7392909;19;1880;-41
2024/03/07 12:59:08;;;;;;;;;;;;;;;20.12;54.78;101062.81;7393717;19;1172;-40